sensor_id;sensor_type;location;lat;lon;timestamp;P1;durP1;ratioP1;P2;durP2;ratioP2
76995;SDS011;65929;49.062;10.338;2023-03-21T00:00:39;6.32;;;3.83;;
76995;SDS011;65929;49.062;10.338;2023-03-21T00:01:40;6.30;;;3.78;;
76995;SDS011;65929;49.062;10.338;2023-03-21T00:02:41;6.10;;;3.85;;
76995;SDS011;65929;49.062;10.338;2023-03-21T00:03:42;7.95;;;4.30;;
76995;SDS011;65929;49.062;10.338;2023-03-21T00:04:43;6.85;;;3.58;;
76995;SDS011;65929;49.062;10.338;2023-03-21T00:05:44;6.88;;;3.83;;
76995;SDS011;65929;49.062;10.338;2023-03-21T00:06:48;7.10;;;3.65;;
76995;SDS011;65929;49.062;10.338;2023-03-21T00:07:50;5.30;;;3.38;;
76995;SDS011;65929;49.062;10.338;2023-03-21T00:08:51;6.35;;;3.78;;
76995;SDS011;65929;49.062;10.338;2023-03-21T00:09:52;7.93;;;3.92;;
76995;SDS011;65929;49.062;10.338;2023-03-21T00:10:54;5.93;;;3.38;;
76995;SDS011;65929;49.062;10.338;2023-03-21T00:11:56;5.95;;;3.83;;
76995;SDS011;65929;49.062;10.338;2023-03-21T00:13:00;6.28;;;3.28;;
76995;SDS011;65929;49.062;10.338;2023-03-21T00:14:03;6.90;;;4.13;;
76995;SDS011;65929;49.062;10.338;2023-03-21T00:15:05;5.45;;;3.33;;
76995;SDS011;65929;49.062;10.338;2023-03-21T00:16:08;6.68;;;3.83;;
76995;SDS011;65929;49.062;10.338;2023-03-21T00:17:14;6.57;;;3.80;;
76995;SDS011;65929;49.062;10.338;2023-03-21T00:18:15;4.88;;;3.28;;
76995;SDS011;65929;49.062;10.338;2023-03-21T00:19:16;7.35;;;3.65;;
76995;SDS011;65929;49.062;10.338;2023-03-21T00:20:19;5.40;;;3.40;;
76995;SDS011;65929;49.062;10.338;2023-03-21T00:21:23;6.80;;;3.75;;
76995;SDS011;65929;49.062;10.338;2023-03-21T00:22:27;6.45;;;3.17;;
76995;SDS011;65929;49.062;10.338;2023-03-21T00:23:28;5.47;;;3.22;;
76995;SDS011;65929;49.062;10.338;2023-03-21T00:24:30;5.20;;;2.92;;
76995;SDS011;65929;49.062;10.338;2023-03-21T00:25:31;5.50;;;3.80;;
76995;SDS011;65929;49.062;10.338;2023-03-21T00:26:32;5.75;;;3.13;;
76995;SDS011;65929;49.062;10.338;2023-03-21T00:27:34;6.30;;;3.50;;
76995;SDS011;65929;49.062;10.338;2023-03-21T00:28:35;8.55;;;3.45;;
76995;SDS011;65929;49.062;10.338;2023-03-21T00:29:38;7.35;;;4.35;;
76995;SDS011;65929;49.062;10.338;2023-03-21T00:30:39;9.55;;;5.18;;
76995;SDS011;65929;49.062;10.338;2023-03-21T00:31:40;8.77;;;5.07;;
76995;SDS011;65929;49.062;10.338;2023-03-21T00:32:41;7.57;;;4.40;;
76995;SDS011;65929;49.062;10.338;2023-03-21T00:33:42;7.38;;;4.10;;
76995;SDS011;65929;49.062;10.338;2023-03-21T00:34:43;6.35;;;3.83;;
76995;SDS011;65929;49.062;10.338;2023-03-21T00:35:45;6.53;;;3.30;;
76995;SDS011;65929;49.062;10.338;2023-03-21T00:36:49;7.45;;;3.95;;
76995;SDS011;65929;49.062;10.338;2023-03-21T00:37:50;6.50;;;3.70;;
76995;SDS011;65929;49.062;10.338;2023-03-21T00:38:51;6.95;;;3.80;;
76995;SDS011;65929;49.062;10.338;2023-03-21T00:39:53;5.85;;;3.47;;
76995;SDS011;65929;49.062;10.338;2023-03-21T00:40:54;6.10;;;3.65;;
76995;SDS011;65929;49.062;10.338;2023-03-21T00:41:55;6.53;;;3.65;;
76995;SDS011;65929;49.062;10.338;2023-03-21T00:42:56;6.82;;;3.70;;
76995;SDS011;65929;49.062;10.338;2023-03-21T00:43:57;5.13;;;3.50;;
76995;SDS011;65929;49.062;10.338;2023-03-21T00:44:59;5.75;;;3.50;;
76995;SDS011;65929;49.062;10.338;2023-03-21T00:46:01;6.43;;;3.58;;
76995;SDS011;65929;49.062;10.338;2023-03-21T00:47:02;6.80;;;3.45;;
76995;SDS011;65929;49.062;10.338;2023-03-21T00:48:04;7.13;;;3.45;;
76995;SDS011;65929;49.062;10.338;2023-03-21T00:49:05;7.10;;;3.20;;
76995;SDS011;65929;49.062;10.338;2023-03-21T00:50:07;7.20;;;3.67;;
76995;SDS011;65929;49.062;10.338;2023-03-21T00:51:13;5.55;;;3.30;;
76995;SDS011;65929;49.062;10.338;2023-03-21T00:52:20;4.93;;;3.13;;
76995;SDS011;65929;49.062;10.338;2023-03-21T00:53:22;5.28;;;3.60;;
76995;SDS011;65929;49.062;10.338;2023-03-21T00:54:23;5.45;;;3.70;;
76995;SDS011;65929;49.062;10.338;2023-03-21T00:55:25;5.22;;;3.40;;
76995;SDS011;65929;49.062;10.338;2023-03-21T00:56:26;5.43;;;3.15;;
76995;SDS011;65929;49.062;10.338;2023-03-21T00:57:27;4.85;;;3.00;;
76995;SDS011;65929;49.062;10.338;2023-03-21T00:58:27;5.85;;;3.60;;
76995;SDS011;65929;49.062;10.338;2023-03-21T00:59:28;3.65;;;3.03;;
76995;SDS011;65929;49.062;10.338;2023-03-21T01:00:31;4.50;;;2.92;;
76995;SDS011;65929;49.062;10.338;2023-03-21T01:01:33;5.95;;;3.00;;
76995;SDS011;65929;49.062;10.338;2023-03-21T01:02:33;6.05;;;3.15;;
76995;SDS011;65929;49.062;10.338;2023-03-21T01:03:34;6.43;;;3.15;;
76995;SDS011;65929;49.062;10.338;2023-03-21T01:04:41;4.80;;;2.80;;
76995;SDS011;65929;49.062;10.338;2023-03-21T01:05:43;4.32;;;2.85;;
76995;SDS011;65929;49.062;10.338;2023-03-21T01:07:04;6.03;;;3.30;;
76995;SDS011;65929;49.062;10.338;2023-03-21T01:08:05;4.30;;;3.00;;
76995;SDS011;65929;49.062;10.338;2023-03-21T01:09:08;5.13;;;2.67;;
76995;SDS011;65929;49.062;10.338;2023-03-21T01:11:14;8.02;;;3.17;;
76995;SDS011;65929;49.062;10.338;2023-03-21T01:12:17;5.50;;;3.00;;
76995;SDS011;65929;49.062;10.338;2023-03-21T01:13:18;3.55;;;2.80;;
76995;SDS011;65929;49.062;10.338;2023-03-21T01:14:21;3.85;;;2.80;;
76995;SDS011;65929;49.062;10.338;2023-03-21T01:15:22;6.45;;;3.30;;
76995;SDS011;65929;49.062;10.338;2023-03-21T01:17:36;5.90;;;3.10;;
76995;SDS011;65929;49.062;10.338;2023-03-21T01:18:38;5.43;;;2.90;;
76995;SDS011;65929;49.062;10.338;2023-03-21T01:19:40;5.85;;;2.80;;
76995;SDS011;65929;49.062;10.338;2023-03-21T01:20:42;6.70;;;3.42;;
76995;SDS011;65929;49.062;10.338;2023-03-21T01:21:44;6.45;;;4.03;;
76995;SDS011;65929;49.062;10.338;2023-03-21T01:22:45;5.20;;;4.00;;
76995;SDS011;65929;49.062;10.338;2023-03-21T01:23:46;7.07;;;3.90;;
76995;SDS011;65929;49.062;10.338;2023-03-21T01:24:47;5.30;;;3.20;;
76995;SDS011;65929;49.062;10.338;2023-03-21T01:25:49;4.80;;;3.22;;
76995;SDS011;65929;49.062;10.338;2023-03-21T01:26:52;5.00;;;3.45;;
76995;SDS011;65929;49.062;10.338;2023-03-21T01:27:53;6.22;;;3.30;;
76995;SDS011;65929;49.062;10.338;2023-03-21T01:28:54;5.68;;;3.13;;
76995;SDS011;65929;49.062;10.338;2023-03-21T01:29:55;6.35;;;3.53;;
76995;SDS011;65929;49.062;10.338;2023-03-21T01:30:56;5.97;;;3.70;;
76995;SDS011;65929;49.062;10.338;2023-03-21T01:31:59;7.93;;;3.70;;
76995;SDS011;65929;49.062;10.338;2023-03-21T01:33:01;5.05;;;3.28;;
76995;SDS011;65929;49.062;10.338;2023-03-21T01:34:03;4.35;;;3.00;;
76995;SDS011;65929;49.062;10.338;2023-03-21T01:35:04;5.43;;;3.53;;
76995;SDS011;65929;49.062;10.338;2023-03-21T01:36:06;6.65;;;3.22;;
76995;SDS011;65929;49.062;10.338;2023-03-21T01:37:08;6.18;;;3.50;;
76995;SDS011;65929;49.062;10.338;2023-03-21T01:38:09;5.28;;;3.15;;
76995;SDS011;65929;49.062;10.338;2023-03-21T01:39:10;5.20;;;3.08;;
76995;SDS011;65929;49.062;10.338;2023-03-21T01:40:12;6.43;;;3.45;;
76995;SDS011;65929;49.062;10.338;2023-03-21T01:41:19;6.82;;;3.25;;
76995;SDS011;65929;49.062;10.338;2023-03-21T01:42:23;6.60;;;2.78;;
76995;SDS011;65929;49.062;10.338;2023-03-21T01:43:25;5.65;;;3.08;;
76995;SDS011;65929;49.062;10.338;2023-03-21T01:44:27;5.70;;;3.00;;
76995;SDS011;65929;49.062;10.338;2023-03-21T01:48:08;5.68;;;2.70;;
76995;SDS011;65929;49.062;10.338;2023-03-21T01:49:12;6.07;;;3.20;;
76995;SDS011;65929;49.062;10.338;2023-03-21T01:50:15;4.40;;;2.90;;
76995;SDS011;65929;49.062;10.338;2023-03-21T01:51:21;4.88;;;3.40;;
76995;SDS011;65929;49.062;10.338;2023-03-21T01:52:25;5.70;;;3.10;;
76995;SDS011;65929;49.062;10.338;2023-03-21T01:53:28;5.25;;;3.63;;
76995;SDS011;65929;49.062;10.338;2023-03-21T01:54:32;3.92;;;2.80;;
76995;SDS011;65929;49.062;10.338;2023-03-21T01:55:37;5.28;;;2.90;;
76995;SDS011;65929;49.062;10.338;2023-03-21T01:56:39;5.80;;;3.58;;
76995;SDS011;65929;49.062;10.338;2023-03-21T01:57:45;5.45;;;3.45;;
76995;SDS011;65929;49.062;10.338;2023-03-21T01:58:52;5.45;;;3.00;;
76995;SDS011;65929;49.062;10.338;2023-03-21T01:59:58;4.65;;;2.72;;
76995;SDS011;65929;49.062;10.338;2023-03-21T02:01:11;4.10;;;2.78;;
76995;SDS011;65929;49.062;10.338;2023-03-21T02:02:15;5.47;;;3.10;;
76995;SDS011;65929;49.062;10.338;2023-03-21T02:03:21;3.75;;;2.78;;
76995;SDS011;65929;49.062;10.338;2023-03-21T02:04:23;4.82;;;2.47;;
76995;SDS011;65929;49.062;10.338;2023-03-21T02:05:28;5.40;;;3.13;;
76995;SDS011;65929;49.062;10.338;2023-03-21T02:06:35;5.35;;;3.38;;
76995;SDS011;65929;49.062;10.338;2023-03-21T02:07:43;5.65;;;3.15;;
76995;SDS011;65929;49.062;10.338;2023-03-21T02:08:44;5.10;;;3.08;;
76995;SDS011;65929;49.062;10.338;2023-03-21T02:09:46;4.90;;;2.80;;
76995;SDS011;65929;49.062;10.338;2023-03-21T02:10:49;5.30;;;2.80;;
76995;SDS011;65929;49.062;10.338;2023-03-21T02:11:51;4.50;;;2.90;;
76995;SDS011;65929;49.062;10.338;2023-03-21T02:12:54;5.18;;;2.85;;
76995;SDS011;65929;49.062;10.338;2023-03-21T02:14:08;5.28;;;3.03;;
76995;SDS011;65929;49.062;10.338;2023-03-21T02:15:14;4.95;;;3.08;;
76995;SDS011;65929;49.062;10.338;2023-03-21T02:16:17;4.22;;;2.83;;
76995;SDS011;65929;49.062;10.338;2023-03-21T02:17:27;5.50;;;2.80;;
76995;SDS011;65929;49.062;10.338;2023-03-21T02:18:37;5.07;;;2.90;;
76995;SDS011;65929;49.062;10.338;2023-03-21T02:22:56;6.05;;;2.97;;
76995;SDS011;65929;49.062;10.338;2023-03-21T02:26:09;5.15;;;2.72;;
76995;SDS011;65929;49.062;10.338;2023-03-21T02:27:33;3.97;;;2.88;;
76995;SDS011;65929;49.062;10.338;2023-03-21T02:28:40;4.25;;;2.80;;
76995;SDS011;65929;49.062;10.338;2023-03-21T02:31:37;7.95;;;2.60;;
76995;SDS011;65929;49.062;10.338;2023-03-21T02:32:47;4.03;;;3.00;;
76995;SDS011;65929;49.062;10.338;2023-03-21T02:35:36;4.57;;;2.90;;
76995;SDS011;65929;49.062;10.338;2023-03-21T02:37:16;6.50;;;3.33;;
76995;SDS011;65929;49.062;10.338;2023-03-21T02:38:22;4.60;;;2.90;;
76995;SDS011;65929;49.062;10.338;2023-03-21T02:39:27;5.45;;;3.00;;
76995;SDS011;65929;49.062;10.338;2023-03-21T02:40:35;4.38;;;3.08;;
76995;SDS011;65929;49.062;10.338;2023-03-21T02:41:44;4.90;;;3.20;;
76995;SDS011;65929;49.062;10.338;2023-03-21T02:42:52;7.35;;;2.80;;
76995;SDS011;65929;49.062;10.338;2023-03-21T02:44:04;3.92;;;2.75;;
76995;SDS011;65929;49.062;10.338;2023-03-21T02:45:11;6.40;;;3.15;;
76995;SDS011;65929;49.062;10.338;2023-03-21T02:46:19;4.28;;;2.67;;
76995;SDS011;65929;49.062;10.338;2023-03-21T02:47:26;5.53;;;2.97;;
76995;SDS011;65929;49.062;10.338;2023-03-21T02:48:31;5.22;;;2.90;;
76995;SDS011;65929;49.062;10.338;2023-03-21T02:49:39;5.85;;;3.10;;
76995;SDS011;65929;49.062;10.338;2023-03-21T02:50:44;3.70;;;2.75;;
76995;SDS011;65929;49.062;10.338;2023-03-21T02:51:48;5.00;;;2.88;;
76995;SDS011;65929;49.062;10.338;2023-03-21T02:52:52;4.90;;;2.70;;
76995;SDS011;65929;49.062;10.338;2023-03-21T02:53:56;4.18;;;2.65;;
76995;SDS011;65929;49.062;10.338;2023-03-21T02:55:01;5.13;;;2.58;;
76995;SDS011;65929;49.062;10.338;2023-03-21T02:56:05;4.85;;;3.05;;
76995;SDS011;65929;49.062;10.338;2023-03-21T02:57:09;5.28;;;2.90;;
76995;SDS011;65929;49.062;10.338;2023-03-21T02:58:12;5.28;;;3.08;;
76995;SDS011;65929;49.062;10.338;2023-03-21T02:59:17;5.78;;;3.00;;
76995;SDS011;65929;49.062;10.338;2023-03-21T03:00:21;4.43;;;2.85;;
76995;SDS011;65929;49.062;10.338;2023-03-21T03:01:24;4.57;;;2.75;;
76995;SDS011;65929;49.062;10.338;2023-03-21T03:02:26;4.45;;;3.15;;
76995;SDS011;65929;49.062;10.338;2023-03-21T03:03:28;5.40;;;2.60;;
76995;SDS011;65929;49.062;10.338;2023-03-21T03:04:29;6.22;;;2.63;;
76995;SDS011;65929;49.062;10.338;2023-03-21T03:05:32;4.07;;;2.97;;
76995;SDS011;65929;49.062;10.338;2023-03-21T03:06:36;4.80;;;2.63;;
76995;SDS011;65929;49.062;10.338;2023-03-21T03:07:46;4.60;;;2.70;;
76995;SDS011;65929;49.062;10.338;2023-03-21T03:09:05;4.63;;;2.88;;
76995;SDS011;65929;49.062;10.338;2023-03-21T03:10:21;6.28;;;3.10;;
76995;SDS011;65929;49.062;10.338;2023-03-21T03:11:36;5.32;;;2.90;;
76995;SDS011;65929;49.062;10.338;2023-03-21T03:12:42;5.35;;;2.78;;
76995;SDS011;65929;49.062;10.338;2023-03-21T03:14:00;5.50;;;2.95;;
76995;SDS011;65929;49.062;10.338;2023-03-21T03:15:12;4.32;;;3.03;;
76995;SDS011;65929;49.062;10.338;2023-03-21T03:17:28;4.53;;;2.60;;
76995;SDS011;65929;49.062;10.338;2023-03-21T03:18:45;6.32;;;3.15;;
76995;SDS011;65929;49.062;10.338;2023-03-21T03:19:53;4.78;;;3.05;;
76995;SDS011;65929;49.062;10.338;2023-03-21T03:21:10;4.03;;;2.95;;
76995;SDS011;65929;49.062;10.338;2023-03-21T03:22:17;4.25;;;3.40;;
76995;SDS011;65929;49.062;10.338;2023-03-21T03:23:26;5.65;;;3.15;;
76995;SDS011;65929;49.062;10.338;2023-03-21T03:24:30;6.03;;;3.53;;
76995;SDS011;65929;49.062;10.338;2023-03-21T03:26:38;4.55;;;2.75;;
76995;SDS011;65929;49.062;10.338;2023-03-21T03:27:44;6.32;;;2.78;;
76995;SDS011;65929;49.062;10.338;2023-03-21T03:28:49;5.80;;;3.10;;
76995;SDS011;65929;49.062;10.338;2023-03-21T03:29:52;5.15;;;3.28;;
76995;SDS011;65929;49.062;10.338;2023-03-21T03:30:54;5.00;;;3.10;;
76995;SDS011;65929;49.062;10.338;2023-03-21T03:31:58;4.20;;;3.30;;
76995;SDS011;65929;49.062;10.338;2023-03-21T03:33:02;4.65;;;3.40;;
76995;SDS011;65929;49.062;10.338;2023-03-21T03:34:06;4.93;;;3.28;;
76995;SDS011;65929;49.062;10.338;2023-03-21T03:36:14;3.75;;;2.88;;
76995;SDS011;65929;49.062;10.338;2023-03-21T03:37:18;6.03;;;3.80;;
76995;SDS011;65929;49.062;10.338;2023-03-21T03:38:26;8.23;;;3.67;;
76995;SDS011;65929;49.062;10.338;2023-03-21T03:39:29;4.40;;;3.38;;
76995;SDS011;65929;49.062;10.338;2023-03-21T03:40:35;6.53;;;3.28;;
76995;SDS011;65929;49.062;10.338;2023-03-21T03:41:41;5.97;;;3.33;;
76995;SDS011;65929;49.062;10.338;2023-03-21T03:42:46;5.95;;;3.15;;
76995;SDS011;65929;49.062;10.338;2023-03-21T03:43:51;4.78;;;3.30;;
76995;SDS011;65929;49.062;10.338;2023-03-21T03:44:54;6.20;;;3.28;;
76995;SDS011;65929;49.062;10.338;2023-03-21T03:45:57;4.72;;;3.13;;
76995;SDS011;65929;49.062;10.338;2023-03-21T03:47:05;5.47;;;2.97;;
76995;SDS011;65929;49.062;10.338;2023-03-21T03:48:12;7.05;;;3.33;;
76995;SDS011;65929;49.062;10.338;2023-03-21T03:49:18;4.65;;;2.95;;
76995;SDS011;65929;49.062;10.338;2023-03-21T03:50:24;6.20;;;3.28;;
76995;SDS011;65929;49.062;10.338;2023-03-21T03:51:30;4.95;;;3.20;;
76995;SDS011;65929;49.062;10.338;2023-03-21T03:52:36;4.63;;;2.90;;
76995;SDS011;65929;49.062;10.338;2023-03-21T03:53:41;6.45;;;3.10;;
76995;SDS011;65929;49.062;10.338;2023-03-21T03:54:45;4.43;;;3.15;;
76995;SDS011;65929;49.062;10.338;2023-03-21T03:55:48;3.88;;;2.60;;
76995;SDS011;65929;49.062;10.338;2023-03-21T03:56:52;3.95;;;2.50;;
76995;SDS011;65929;49.062;10.338;2023-03-21T03:57:54;4.93;;;3.08;;
76995;SDS011;65929;49.062;10.338;2023-03-21T03:58:55;6.15;;;2.88;;
76995;SDS011;65929;49.062;10.338;2023-03-21T03:59:56;6.05;;;3.22;;
76995;SDS011;65929;49.062;10.338;2023-03-21T04:00:57;4.28;;;2.88;;
76995;SDS011;65929;49.062;10.338;2023-03-21T04:01:58;5.88;;;3.25;;
76995;SDS011;65929;49.062;10.338;2023-03-21T04:02:59;4.28;;;3.05;;
76995;SDS011;65929;49.062;10.338;2023-03-21T04:04:00;4.45;;;2.60;;
76995;SDS011;65929;49.062;10.338;2023-03-21T04:05:01;5.60;;;3.55;;
76995;SDS011;65929;49.062;10.338;2023-03-21T04:06:03;6.50;;;3.60;;
76995;SDS011;65929;49.062;10.338;2023-03-21T04:07:05;7.97;;;4.30;;
76995;SDS011;65929;49.062;10.338;2023-03-21T04:08:06;8.20;;;4.85;;
76995;SDS011;65929;49.062;10.338;2023-03-21T04:09:09;8.20;;;5.03;;
76995;SDS011;65929;49.062;10.338;2023-03-21T04:10:10;12.38;;;5.90;;
76995;SDS011;65929;49.062;10.338;2023-03-21T04:11:12;11.85;;;6.75;;
76995;SDS011;65929;49.062;10.338;2023-03-21T04:12:13;10.18;;;5.93;;
76995;SDS011;65929;49.062;10.338;2023-03-21T04:13:14;10.07;;;5.78;;
76995;SDS011;65929;49.062;10.338;2023-03-21T04:14:15;8.55;;;5.18;;
76995;SDS011;65929;49.062;10.338;2023-03-21T04:15:16;7.78;;;5.25;;
76995;SDS011;65929;49.062;10.338;2023-03-21T04:16:21;9.02;;;5.50;;
76995;SDS011;65929;49.062;10.338;2023-03-21T04:17:25;7.70;;;5.03;;
76995;SDS011;65929;49.062;10.338;2023-03-21T04:18:25;8.27;;;4.45;;
76995;SDS011;65929;49.062;10.338;2023-03-21T04:19:26;4.55;;;3.92;;
76995;SDS011;65929;49.062;10.338;2023-03-21T04:20:27;6.05;;;3.97;;
76995;SDS011;65929;49.062;10.338;2023-03-21T04:21:28;8.40;;;4.15;;
76995;SDS011;65929;49.062;10.338;2023-03-21T04:22:29;5.68;;;3.38;;
76995;SDS011;65929;49.062;10.338;2023-03-21T04:23:38;5.95;;;3.95;;
76995;SDS011;65929;49.062;10.338;2023-03-21T04:24:40;5.70;;;3.35;;
76995;SDS011;65929;49.062;10.338;2023-03-21T04:25:41;3.78;;;3.15;;
76995;SDS011;65929;49.062;10.338;2023-03-21T04:26:44;5.55;;;3.58;;
76995;SDS011;65929;49.062;10.338;2023-03-21T04:27:45;5.20;;;3.40;;
76995;SDS011;65929;49.062;10.338;2023-03-21T04:28:47;5.45;;;3.58;;
76995;SDS011;65929;49.062;10.338;2023-03-21T04:29:48;4.63;;;2.85;;
76995;SDS011;65929;49.062;10.338;2023-03-21T04:30:49;5.93;;;3.55;;
76995;SDS011;65929;49.062;10.338;2023-03-21T04:31:50;7.60;;;4.20;;
76995;SDS011;65929;49.062;10.338;2023-03-21T04:32:52;5.15;;;3.88;;
76995;SDS011;65929;49.062;10.338;2023-03-21T04:33:55;6.72;;;4.30;;
76995;SDS011;65929;49.062;10.338;2023-03-21T04:34:57;6.47;;;4.20;;
76995;SDS011;65929;49.062;10.338;2023-03-21T04:35:58;7.97;;;4.60;;
76995;SDS011;65929;49.062;10.338;2023-03-21T04:36:59;6.53;;;4.20;;
76995;SDS011;65929;49.062;10.338;2023-03-21T04:38:00;7.68;;;4.28;;
76995;SDS011;65929;49.062;10.338;2023-03-21T04:39:01;8.32;;;4.50;;
76995;SDS011;65929;49.062;10.338;2023-03-21T04:40:06;8.98;;;4.82;;
76995;SDS011;65929;49.062;10.338;2023-03-21T04:41:07;5.63;;;3.80;;
76995;SDS011;65929;49.062;10.338;2023-03-21T04:42:08;6.28;;;4.10;;
76995;SDS011;65929;49.062;10.338;2023-03-21T04:43:09;7.25;;;4.45;;
76995;SDS011;65929;49.062;10.338;2023-03-21T04:44:10;4.82;;;3.38;;
76995;SDS011;65929;49.062;10.338;2023-03-21T04:45:12;5.30;;;3.30;;
76995;SDS011;65929;49.062;10.338;2023-03-21T04:46:14;6.18;;;3.15;;
76995;SDS011;65929;49.062;10.338;2023-03-21T04:47:15;5.55;;;3.60;;
76995;SDS011;65929;49.062;10.338;2023-03-21T04:48:19;6.72;;;3.70;;
76995;SDS011;65929;49.062;10.338;2023-03-21T04:49:23;6.85;;;3.70;;
76995;SDS011;65929;49.062;10.338;2023-03-21T04:50:24;5.53;;;3.63;;
76995;SDS011;65929;49.062;10.338;2023-03-21T04:51:25;5.63;;;3.35;;
76995;SDS011;65929;49.062;10.338;2023-03-21T04:52:27;7.03;;;3.67;;
76995;SDS011;65929;49.062;10.338;2023-03-21T04:53:27;7.07;;;3.65;;
76995;SDS011;65929;49.062;10.338;2023-03-21T04:54:28;6.82;;;3.63;;
76995;SDS011;65929;49.062;10.338;2023-03-21T04:55:31;8.30;;;3.47;;
76995;SDS011;65929;49.062;10.338;2023-03-21T04:56:32;6.22;;;3.63;;
76995;SDS011;65929;49.062;10.338;2023-03-21T04:57:34;5.90;;;3.53;;
76995;SDS011;65929;49.062;10.338;2023-03-21T04:58:36;7.63;;;4.68;;
76995;SDS011;65929;49.062;10.338;2023-03-21T04:59:39;6.82;;;3.90;;
76995;SDS011;65929;49.062;10.338;2023-03-21T05:00:40;8.63;;;4.03;;
76995;SDS011;65929;49.062;10.338;2023-03-21T05:01:41;6.93;;;4.10;;
76995;SDS011;65929;49.062;10.338;2023-03-21T05:02:43;5.90;;;4.00;;
76995;SDS011;65929;49.062;10.338;2023-03-21T05:03:44;5.25;;;3.45;;
76995;SDS011;65929;49.062;10.338;2023-03-21T05:04:45;6.45;;;3.75;;
76995;SDS011;65929;49.062;10.338;2023-03-21T05:05:46;4.80;;;3.72;;
76995;SDS011;65929;49.062;10.338;2023-03-21T05:06:47;6.10;;;4.03;;
76995;SDS011;65929;49.062;10.338;2023-03-21T05:07:48;6.82;;;4.35;;
76995;SDS011;65929;49.062;10.338;2023-03-21T05:08:49;7.50;;;4.35;;
76995;SDS011;65929;49.062;10.338;2023-03-21T05:09:50;6.20;;;3.88;;
76995;SDS011;65929;49.062;10.338;2023-03-21T05:10:53;6.45;;;4.53;;
76995;SDS011;65929;49.062;10.338;2023-03-21T05:11:54;8.05;;;4.30;;
76995;SDS011;65929;49.062;10.338;2023-03-21T05:12:55;6.90;;;4.20;;
76995;SDS011;65929;49.062;10.338;2023-03-21T05:13:56;10.68;;;5.70;;
76995;SDS011;65929;49.062;10.338;2023-03-21T05:14:57;16.38;;;10.00;;
76995;SDS011;65929;49.062;10.338;2023-03-21T05:15:58;15.25;;;10.30;;
76995;SDS011;65929;49.062;10.338;2023-03-21T05:16:59;9.18;;;6.20;;
76995;SDS011;65929;49.062;10.338;2023-03-21T05:18:04;8.95;;;4.60;;
76995;SDS011;65929;49.062;10.338;2023-03-21T05:19:10;8.35;;;4.80;;
76995;SDS011;65929;49.062;10.338;2023-03-21T05:20:13;8.15;;;4.28;;
76995;SDS011;65929;49.062;10.338;2023-03-21T05:21:16;6.07;;;3.75;;
76995;SDS011;65929;49.062;10.338;2023-03-21T05:22:18;6.00;;;4.00;;
76995;SDS011;65929;49.062;10.338;2023-03-21T05:23:19;7.93;;;4.95;;
76995;SDS011;65929;49.062;10.338;2023-03-21T05:24:21;5.85;;;4.65;;
76995;SDS011;65929;49.062;10.338;2023-03-21T05:25:22;7.32;;;5.00;;
76995;SDS011;65929;49.062;10.338;2023-03-21T05:26:35;9.80;;;5.68;;
76995;SDS011;65929;49.062;10.338;2023-03-21T05:27:36;6.57;;;3.83;;
76995;SDS011;65929;49.062;10.338;2023-03-21T05:28:37;6.97;;;3.90;;
76995;SDS011;65929;49.062;10.338;2023-03-21T05:29:39;7.47;;;4.53;;
76995;SDS011;65929;49.062;10.338;2023-03-21T05:30:40;13.70;;;6.90;;
76995;SDS011;65929;49.062;10.338;2023-03-21T05:31:41;12.60;;;8.18;;
76995;SDS011;65929;49.062;10.338;2023-03-21T05:32:42;9.90;;;6.72;;
76995;SDS011;65929;49.062;10.338;2023-03-21T05:33:43;11.05;;;6.70;;
76995;SDS011;65929;49.062;10.338;2023-03-21T05:34:44;8.02;;;4.55;;
76995;SDS011;65929;49.062;10.338;2023-03-21T05:35:45;7.03;;;4.95;;
76995;SDS011;65929;49.062;10.338;2023-03-21T05:36:49;6.28;;;4.40;;
76995;SDS011;65929;49.062;10.338;2023-03-21T05:37:50;9.52;;;4.93;;
76995;SDS011;65929;49.062;10.338;2023-03-21T05:38:52;6.72;;;4.28;;
76995;SDS011;65929;49.062;10.338;2023-03-21T05:39:53;6.43;;;4.03;;
76995;SDS011;65929;49.062;10.338;2023-03-21T05:40:54;6.50;;;3.80;;
76995;SDS011;65929;49.062;10.338;2023-03-21T05:41:56;5.55;;;3.70;;
76995;SDS011;65929;49.062;10.338;2023-03-21T05:42:57;7.10;;;3.90;;
76995;SDS011;65929;49.062;10.338;2023-03-21T05:43:58;5.85;;;3.58;;
76995;SDS011;65929;49.062;10.338;2023-03-21T05:44:59;5.43;;;3.90;;
76995;SDS011;65929;49.062;10.338;2023-03-21T05:46:00;4.57;;;3.35;;
76995;SDS011;65929;49.062;10.338;2023-03-21T05:47:01;7.32;;;4.32;;
76995;SDS011;65929;49.062;10.338;2023-03-21T05:48:05;5.35;;;3.38;;
76995;SDS011;65929;49.062;10.338;2023-03-21T05:49:06;7.80;;;4.18;;
76995;SDS011;65929;49.062;10.338;2023-03-21T05:50:07;7.00;;;4.05;;
76995;SDS011;65929;49.062;10.338;2023-03-21T05:51:10;7.28;;;4.55;;
76995;SDS011;65929;49.062;10.338;2023-03-21T05:52:11;6.07;;;3.53;;
76995;SDS011;65929;49.062;10.338;2023-03-21T05:53:12;8.85;;;4.55;;
76995;SDS011;65929;49.062;10.338;2023-03-21T05:54:13;6.38;;;4.18;;
76995;SDS011;65929;49.062;10.338;2023-03-21T05:55:15;6.97;;;4.03;;
76995;SDS011;65929;49.062;10.338;2023-03-21T05:56:16;7.10;;;4.20;;
76995;SDS011;65929;49.062;10.338;2023-03-21T05:57:19;8.18;;;4.63;;
76995;SDS011;65929;49.062;10.338;2023-03-21T05:58:20;8.75;;;4.75;;
76995;SDS011;65929;49.062;10.338;2023-03-21T05:59:21;8.15;;;4.65;;
76995;SDS011;65929;49.062;10.338;2023-03-21T06:00:22;7.55;;;4.95;;
76995;SDS011;65929;49.062;10.338;2023-03-21T06:01:24;9.05;;;5.38;;
76995;SDS011;65929;49.062;10.338;2023-03-21T06:02:25;6.40;;;4.50;;
76995;SDS011;65929;49.062;10.338;2023-03-21T06:03:25;7.90;;;4.93;;
76995;SDS011;65929;49.062;10.338;2023-03-21T06:04:26;6.15;;;4.75;;
76995;SDS011;65929;49.062;10.338;2023-03-21T06:05:28;8.30;;;4.28;;
76995;SDS011;65929;49.062;10.338;2023-03-21T06:06:29;8.50;;;4.35;;
76995;SDS011;65929;49.062;10.338;2023-03-21T06:07:30;6.82;;;4.57;;
76995;SDS011;65929;49.062;10.338;2023-03-21T06:08:31;7.97;;;4.63;;
76995;SDS011;65929;49.062;10.338;2023-03-21T06:09:32;9.25;;;4.50;;
76995;SDS011;65929;49.062;10.338;2023-03-21T06:10:33;6.65;;;4.22;;
76995;SDS011;65929;49.062;10.338;2023-03-21T06:11:35;6.82;;;4.53;;
76995;SDS011;65929;49.062;10.338;2023-03-21T06:12:39;8.70;;;5.00;;
76995;SDS011;65929;49.062;10.338;2023-03-21T06:13:42;6.53;;;4.35;;
76995;SDS011;65929;49.062;10.338;2023-03-21T06:14:43;6.43;;;4.38;;
76995;SDS011;65929;49.062;10.338;2023-03-21T06:15:43;5.65;;;3.88;;
76995;SDS011;65929;49.062;10.338;2023-03-21T06:16:44;6.93;;;5.10;;
76995;SDS011;65929;49.062;10.338;2023-03-21T06:17:45;7.93;;;4.80;;
76995;SDS011;65929;49.062;10.338;2023-03-21T06:18:46;5.93;;;4.10;;
76995;SDS011;65929;49.062;10.338;2023-03-21T06:19:47;7.35;;;4.05;;
76995;SDS011;65929;49.062;10.338;2023-03-21T06:20:48;6.28;;;4.53;;
76995;SDS011;65929;49.062;10.338;2023-03-21T06:21:49;6.75;;;4.22;;
76995;SDS011;65929;49.062;10.338;2023-03-21T06:22:50;9.50;;;4.63;;
76995;SDS011;65929;49.062;10.338;2023-03-21T06:23:51;7.05;;;3.78;;
76995;SDS011;65929;49.062;10.338;2023-03-21T06:24:53;6.82;;;4.30;;
76995;SDS011;65929;49.062;10.338;2023-03-21T06:25:54;7.50;;;4.35;;
76995;SDS011;65929;49.062;10.338;2023-03-21T06:26:54;6.50;;;4.38;;
76995;SDS011;65929;49.062;10.338;2023-03-21T06:27:57;7.30;;;4.28;;
76995;SDS011;65929;49.062;10.338;2023-03-21T06:28:58;7.90;;;4.47;;
76995;SDS011;65929;49.062;10.338;2023-03-21T06:29:59;8.20;;;4.50;;
76995;SDS011;65929;49.062;10.338;2023-03-21T06:31:00;7.50;;;4.60;;
76995;SDS011;65929;49.062;10.338;2023-03-21T06:32:01;8.45;;;4.43;;